sensor_id;sensor_type;location;lat;lon;timestamp;P1;durP1;ratioP1;P2;durP2;ratioP2
297;SDS011;133;49.626;9.680;2023-05-07T00:00:21;5.47;;;4.57;;
297;SDS011;133;49.626;9.680;2023-05-07T00:02:47;5.63;;;4.07;;
297;SDS011;133;49.626;9.680;2023-05-07T00:05:13;5.20;;;4.17;;
297;SDS011;133;49.626;9.680;2023-05-07T00:07:39;5.70;;;4.17;;
297;SDS011;133;49.626;9.680;2023-05-07T00:10:05;4.23;;;3.97;;
297;SDS011;133;49.626;9.680;2023-05-07T00:12:31;4.77;;;4.00;;
297;SDS011;133;49.626;9.680;2023-05-07T00:15:01;5.40;;;4.20;;
297;SDS011;133;49.626;9.680;2023-05-07T00:17:28;7.73;;;4.07;;
297;SDS011;133;49.626;9.680;2023-05-07T00:19:54;4.40;;;4.03;;
297;SDS011;133;49.626;9.680;2023-05-07T00:22:20;13.03;;;4.50;;
297;SDS011;133;49.626;9.680;2023-05-07T00:24:46;3.83;;;3.63;;
297;SDS011;133;49.626;9.680;2023-05-07T00:27:12;3.90;;;3.70;;
297;SDS011;133;49.626;9.680;2023-05-07T00:29:37;4.40;;;4.10;;
297;SDS011;133;49.626;9.680;2023-05-07T00:32:03;3.73;;;3.50;;
297;SDS011;133;49.626;9.680;2023-05-07T00:34:28;3.70;;;3.47;;
297;SDS011;133;49.626;9.680;2023-05-07T00:36:54;4.60;;;4.17;;
297;SDS011;133;49.626;9.680;2023-05-07T00:39:20;4.50;;;4.07;;
297;SDS011;133;49.626;9.680;2023-05-07T00:41:45;6.70;;;3.80;;
297;SDS011;133;49.626;9.680;2023-05-07T00:44:12;3.90;;;3.63;;
297;SDS011;133;49.626;9.680;2023-05-07T00:46:38;4.90;;;4.03;;
297;SDS011;133;49.626;9.680;2023-05-07T00:49:04;4.03;;;3.83;;
297;SDS011;133;49.626;9.680;2023-05-07T00:51:30;3.63;;;3.43;;
297;SDS011;133;49.626;9.680;2023-05-07T00:53:55;3.80;;;3.60;;
297;SDS011;133;49.626;9.680;2023-05-07T00:56:21;3.93;;;3.73;;
297;SDS011;133;49.626;9.680;2023-05-07T00:58:48;4.00;;;3.80;;
297;SDS011;133;49.626;9.680;2023-05-07T01:01:13;5.03;;;3.83;;
297;SDS011;133;49.626;9.680;2023-05-07T01:03:41;4.60;;;4.30;;
297;SDS011;133;49.626;9.680;2023-05-07T01:06:07;4.30;;;4.00;;
297;SDS011;133;49.626;9.680;2023-05-07T01:08:34;5.80;;;4.00;;
297;SDS011;133;49.626;9.680;2023-05-07T01:11:01;5.23;;;4.93;;
297;SDS011;133;49.626;9.680;2023-05-07T01:13:27;4.33;;;4.03;;
297;SDS011;133;49.626;9.680;2023-05-07T01:15:53;4.60;;;4.30;;
297;SDS011;133;49.626;9.680;2023-05-07T01:18:19;4.07;;;3.87;;
297;SDS011;133;49.626;9.680;2023-05-07T01:20:45;4.50;;;4.20;;
297;SDS011;133;49.626;9.680;2023-05-07T01:23:10;4.80;;;4.50;;
297;SDS011;133;49.626;9.680;2023-05-07T01:25:37;5.60;;;4.23;;
297;SDS011;133;49.626;9.680;2023-05-07T01:28:02;4.33;;;4.03;;
297;SDS011;133;49.626;9.680;2023-05-07T01:30:28;4.00;;;3.67;;
297;SDS011;133;49.626;9.680;2023-05-07T01:33:09;3.90;;;3.70;;
297;SDS011;133;49.626;9.680;2023-05-07T01:35:39;4.30;;;4.00;;
297;SDS011;133;49.626;9.680;2023-05-07T01:38:07;4.40;;;4.10;;
297;SDS011;133;49.626;9.680;2023-05-07T01:40:34;4.40;;;4.10;;
297;SDS011;133;49.626;9.680;2023-05-07T01:43:00;4.40;;;4.10;;
297;SDS011;133;49.626;9.680;2023-05-07T01:45:27;5.97;;;4.50;;
297;SDS011;133;49.626;9.680;2023-05-07T01:47:53;4.67;;;4.37;;
297;SDS011;133;49.626;9.680;2023-05-07T01:50:20;4.93;;;4.33;;
297;SDS011;133;49.626;9.680;2023-05-07T01:52:47;4.60;;;4.30;;
297;SDS011;133;49.626;9.680;2023-05-07T01:55:15;4.83;;;4.53;;
297;SDS011;133;49.626;9.680;2023-05-07T01:57:40;4.83;;;4.53;;
297;SDS011;133;49.626;9.680;2023-05-07T02:00:06;4.97;;;4.67;;
297;SDS011;133;49.626;9.680;2023-05-07T02:02:33;5.30;;;5.00;;
297;SDS011;133;49.626;9.680;2023-05-07T02:04:59;4.60;;;4.30;;
297;SDS011;133;49.626;9.680;2023-05-07T02:07:26;4.87;;;4.57;;
297;SDS011;133;49.626;9.680;2023-05-07T02:09:52;4.97;;;4.67;;
297;SDS011;133;49.626;9.680;2023-05-07T02:12:20;6.73;;;5.07;;
297;SDS011;133;49.626;9.680;2023-05-07T02:14:46;5.40;;;4.90;;
297;SDS011;133;49.626;9.680;2023-05-07T02:17:11;5.87;;;5.00;;
297;SDS011;133;49.626;9.680;2023-05-07T02:19:37;9.20;;;4.57;;
297;SDS011;133;49.626;9.680;2023-05-07T02:22:02;5.37;;;5.07;;
297;SDS011;133;49.626;9.680;2023-05-07T02:24:28;4.80;;;4.50;;
297;SDS011;133;49.626;9.680;2023-05-07T02:26:54;4.47;;;4.17;;
297;SDS011;133;49.626;9.680;2023-05-07T02:29:19;5.47;;;4.60;;
297;SDS011;133;49.626;9.680;2023-05-07T02:31:45;5.83;;;4.83;;
297;SDS011;133;49.626;9.680;2023-05-07T02:34:10;4.90;;;4.60;;
297;SDS011;133;49.626;9.680;2023-05-07T02:36:36;4.70;;;4.40;;
297;SDS011;133;49.626;9.680;2023-05-07T02:39:02;4.63;;;4.33;;
297;SDS011;133;49.626;9.680;2023-05-07T02:41:27;4.67;;;4.27;;
297;SDS011;133;49.626;9.680;2023-05-07T02:43:53;4.97;;;4.67;;
297;SDS011;133;49.626;9.680;2023-05-07T02:46:19;6.70;;;4.87;;
297;SDS011;133;49.626;9.680;2023-05-07T02:48:44;4.67;;;4.37;;
297;SDS011;133;49.626;9.680;2023-05-07T02:51:10;4.73;;;4.43;;
297;SDS011;133;49.626;9.680;2023-05-07T02:53:35;4.43;;;4.13;;
297;SDS011;133;49.626;9.680;2023-05-07T02:56:01;4.90;;;4.60;;
297;SDS011;133;49.626;9.680;2023-05-07T02:58:27;5.20;;;4.90;;
297;SDS011;133;49.626;9.680;2023-05-07T03:00:53;5.00;;;4.70;;
297;SDS011;133;49.626;9.680;2023-05-07T03:03:21;7.03;;;5.27;;
297;SDS011;133;49.626;9.680;2023-05-07T03:05:47;4.90;;;4.60;;
297;SDS011;133;49.626;9.680;2023-05-07T03:08:13;5.13;;;4.83;;
297;SDS011;133;49.626;9.680;2023-05-07T03:10:38;6.37;;;5.00;;
297;SDS011;133;49.626;9.680;2023-05-07T03:13:04;5.73;;;5.37;;
297;SDS011;133;49.626;9.680;2023-05-07T03:15:30;5.67;;;5.20;;
297;SDS011;133;49.626;9.680;2023-05-07T03:17:56;5.00;;;4.73;;
297;SDS011;133;49.626;9.680;2023-05-07T03:20:21;5.20;;;4.90;;
297;SDS011;133;49.626;9.680;2023-05-07T03:22:47;5.80;;;5.07;;
297;SDS011;133;49.626;9.680;2023-05-07T03:25:13;4.70;;;4.50;;
297;SDS011;133;49.626;9.680;2023-05-07T03:27:39;5.43;;;5.13;;
297;SDS011;133;49.626;9.680;2023-05-07T03:30:07;5.43;;;5.13;;
297;SDS011;133;49.626;9.680;2023-05-07T03:32:33;5.77;;;5.50;;
297;SDS011;133;49.626;9.680;2023-05-07T03:35:00;5.20;;;4.93;;
297;SDS011;133;49.626;9.680;2023-05-07T03:37:26;5.70;;;5.40;;
297;SDS011;133;49.626;9.680;2023-05-07T03:39:51;5.00;;;4.70;;
297;SDS011;133;49.626;9.680;2023-05-07T03:42:17;6.47;;;5.10;;
297;SDS011;133;49.626;9.680;2023-05-07T03:44:42;5.27;;;4.97;;
297;SDS011;133;49.626;9.680;2023-05-07T03:47:08;5.30;;;5.00;;
297;SDS011;133;49.626;9.680;2023-05-07T03:49:35;5.20;;;4.90;;
297;SDS011;133;49.626;9.680;2023-05-07T03:52:00;5.33;;;5.03;;
297;SDS011;133;49.626;9.680;2023-05-07T03:54:26;4.80;;;4.50;;
297;SDS011;133;49.626;9.680;2023-05-07T03:56:52;4.90;;;4.60;;
297;SDS011;133;49.626;9.680;2023-05-07T03:59:17;5.50;;;5.20;;
297;SDS011;133;49.626;9.680;2023-05-07T04:01:43;4.87;;;4.57;;
297;SDS011;133;49.626;9.680;2023-05-07T04:04:08;4.83;;;4.53;;
297;SDS011;133;49.626;9.680;2023-05-07T04:06:34;6.20;;;5.80;;
297;SDS011;133;49.626;9.680;2023-05-07T04:09:00;4.80;;;4.50;;
297;SDS011;133;49.626;9.680;2023-05-07T04:11:25;4.80;;;4.50;;
297;SDS011;133;49.626;9.680;2023-05-07T04:13:51;5.40;;;5.10;;
297;SDS011;133;49.626;9.680;2023-05-07T04:16:17;4.97;;;4.67;;
297;SDS011;133;49.626;9.680;2023-05-07T04:18:42;5.33;;;5.03;;
297;SDS011;133;49.626;9.680;2023-05-07T04:21:15;4.60;;;4.40;;
297;SDS011;133;49.626;9.680;2023-05-07T04:23:45;6.40;;;6.00;;
297;SDS011;133;49.626;9.680;2023-05-07T04:26:14;5.37;;;5.07;;
297;SDS011;133;49.626;9.680;2023-05-07T04:28:41;5.27;;;4.97;;
297;SDS011;133;49.626;9.680;2023-05-07T04:31:06;5.63;;;5.33;;
297;SDS011;133;49.626;9.680;2023-05-07T04:33:32;5.73;;;5.03;;
297;SDS011;133;49.626;9.680;2023-05-07T04:35:58;5.70;;;5.40;;
297;SDS011;133;49.626;9.680;2023-05-07T04:38:28;5.30;;;5.00;;
297;SDS011;133;49.626;9.680;2023-05-07T04:40:55;4.50;;;4.20;;
297;SDS011;133;49.626;9.680;2023-05-07T04:43:21;5.70;;;5.40;;
297;SDS011;133;49.626;9.680;2023-05-07T04:45:47;5.50;;;4.77;;
297;SDS011;133;49.626;9.680;2023-05-07T04:48:14;4.50;;;4.20;;
297;SDS011;133;49.626;9.680;2023-05-07T04:50:40;4.80;;;4.50;;
297;SDS011;133;49.626;9.680;2023-05-07T04:53:06;4.60;;;4.30;;
297;SDS011;133;49.626;9.680;2023-05-07T04:55:31;7.60;;;5.40;;
297;SDS011;133;49.626;9.680;2023-05-07T04:57:57;4.60;;;4.30;;
297;SDS011;133;49.626;9.680;2023-05-07T05:00:23;4.93;;;4.63;;
297;SDS011;133;49.626;9.680;2023-05-07T05:02:48;5.23;;;4.93;;
297;SDS011;133;49.626;9.680;2023-05-07T05:05:14;5.07;;;4.80;;
297;SDS011;133;49.626;9.680;2023-05-07T05:07:40;4.53;;;4.23;;
297;SDS011;133;49.626;9.680;2023-05-07T05:10:05;5.30;;;5.00;;
297;SDS011;133;49.626;9.680;2023-05-07T05:12:31;6.20;;;5.00;;
297;SDS011;133;49.626;9.680;2023-05-07T05:14:57;5.20;;;4.90;;
297;SDS011;133;49.626;9.680;2023-05-07T05:17:22;5.13;;;4.83;;
297;SDS011;133;49.626;9.680;2023-05-07T05:19:48;4.60;;;4.30;;
297;SDS011;133;49.626;9.680;2023-05-07T05:22:13;4.10;;;3.90;;
297;SDS011;133;49.626;9.680;2023-05-07T05:24:39;5.73;;;4.67;;
297;SDS011;133;49.626;9.680;2023-05-07T05:27:04;4.93;;;4.60;;
297;SDS011;133;49.626;9.680;2023-05-07T05:29:30;5.17;;;4.90;;
297;SDS011;133;49.626;9.680;2023-05-07T05:31:56;5.00;;;4.70;;
297;SDS011;133;49.626;9.680;2023-05-07T05:34:22;4.40;;;4.10;;
297;SDS011;133;49.626;9.680;2023-05-07T05:36:48;8.93;;;5.60;;
297;SDS011;133;49.626;9.680;2023-05-07T05:39:13;5.03;;;4.73;;
297;SDS011;133;49.626;9.680;2023-05-07T05:41:39;5.00;;;4.70;;
297;SDS011;133;49.626;9.680;2023-05-07T05:44:05;4.40;;;4.10;;
297;SDS011;133;49.626;9.680;2023-05-07T05:46:31;5.60;;;4.93;;
297;SDS011;133;49.626;9.680;2023-05-07T05:48:57;5.03;;;4.77;;
297;SDS011;133;49.626;9.680;2023-05-07T05:51:22;5.00;;;4.70;;
297;SDS011;133;49.626;9.680;2023-05-07T05:53:48;5.50;;;5.20;;
297;SDS011;133;49.626;9.680;2023-05-07T05:56:14;5.90;;;5.37;;
297;SDS011;133;49.626;9.680;2023-05-07T05:58:40;5.20;;;4.80;;
297;SDS011;133;49.626;9.680;2023-05-07T06:01:06;4.97;;;4.70;;
297;SDS011;133;49.626;9.680;2023-05-07T06:03:32;5.30;;;5.00;;
297;SDS011;133;49.626;9.680;2023-05-07T06:05:58;5.13;;;4.83;;
297;SDS011;133;49.626;9.680;2023-05-07T06:08:25;4.70;;;4.40;;
297;SDS011;133;49.626;9.680;2023-05-07T06:10:54;4.93;;;4.63;;
297;SDS011;133;49.626;9.680;2023-05-07T06:13:20;5.53;;;4.27;;
297;SDS011;133;49.626;9.680;2023-05-07T06:15:46;4.50;;;4.20;;
297;SDS011;133;49.626;9.680;2023-05-07T06:18:11;5.20;;;4.90;;
297;SDS011;133;49.626;9.680;2023-05-07T06:20:37;4.73;;;4.43;;
297;SDS011;133;49.626;9.680;2023-05-07T06:23:03;4.50;;;4.20;;
297;SDS011;133;49.626;9.680;2023-05-07T06:25:28;4.40;;;4.10;;
297;SDS011;133;49.626;9.680;2023-05-07T06:27:54;5.07;;;4.80;;
297;SDS011;133;49.626;9.680;2023-05-07T06:30:19;4.73;;;4.43;;
297;SDS011;133;49.626;9.680;2023-05-07T06:32:45;5.10;;;4.80;;
297;SDS011;133;49.626;9.680;2023-05-07T06:35:11;6.00;;;5.00;;
297;SDS011;133;49.626;9.680;2023-05-07T06:37:36;5.80;;;5.30;;
297;SDS011;133;49.626;9.680;2023-05-07T06:40:04;7.20;;;6.40;;
297;SDS011;133;49.626;9.680;2023-05-07T06:42:32;5.90;;;5.27;;
297;SDS011;133;49.626;9.680;2023-05-07T06:44:57;6.30;;;5.73;;
297;SDS011;133;49.626;9.680;2023-05-07T06:47:23;5.10;;;4.80;;
297;SDS011;133;49.626;9.680;2023-05-07T06:49:48;9.63;;;5.60;;
297;SDS011;133;49.626;9.680;2023-05-07T06:52:14;5.57;;;5.27;;
297;SDS011;133;49.626;9.680;2023-05-07T06:54:40;5.60;;;5.00;;
297;SDS011;133;49.626;9.680;2023-05-07T06:57:05;7.00;;;5.77;;
297;SDS011;133;49.626;9.680;2023-05-07T06:59:32;5.83;;;5.53;;
297;SDS011;133;49.626;9.680;2023-05-07T07:01:57;7.50;;;6.30;;
297;SDS011;133;49.626;9.680;2023-05-07T07:04:23;6.77;;;6.30;;
297;SDS011;133;49.626;9.680;2023-05-07T07:06:49;6.63;;;6.23;;
297;SDS011;133;49.626;9.680;2023-05-07T07:09:16;6.67;;;6.27;;
297;SDS011;133;49.626;9.680;2023-05-07T07:11:42;8.87;;;6.20;;
297;SDS011;133;49.626;9.680;2023-05-07T07:14:07;6.20;;;5.77;;
297;SDS011;133;49.626;9.680;2023-05-07T07:16:33;7.07;;;6.67;;
297;SDS011;133;49.626;9.680;2023-05-07T07:18:59;6.73;;;6.23;;
297;SDS011;133;49.626;9.680;2023-05-07T07:21:24;6.93;;;6.53;;
297;SDS011;133;49.626;9.680;2023-05-07T07:23:50;6.73;;;6.37;;
297;SDS011;133;49.626;9.680;2023-05-07T07:26:17;6.47;;;6.03;;
297;SDS011;133;49.626;9.680;2023-05-07T07:28:43;6.83;;;6.30;;
297;SDS011;133;49.626;9.680;2023-05-07T07:31:09;6.43;;;6.03;;
297;SDS011;133;49.626;9.680;2023-05-07T07:33:35;6.40;;;6.00;;
297;SDS011;133;49.626;9.680;2023-05-07T07:36:01;6.90;;;6.40;;
297;SDS011;133;49.626;9.680;2023-05-07T07:38:27;6.47;;;6.07;;
297;SDS011;133;49.626;9.680;2023-05-07T07:40:53;6.63;;;6.23;;
297;SDS011;133;49.626;9.680;2023-05-07T07:43:18;6.83;;;6.43;;
297;SDS011;133;49.626;9.680;2023-05-07T07:45:44;6.50;;;6.17;;
297;SDS011;133;49.626;9.680;2023-05-07T07:48:10;7.23;;;6.83;;
297;SDS011;133;49.626;9.680;2023-05-07T07:50:36;7.10;;;6.70;;
297;SDS011;133;49.626;9.680;2023-05-07T07:53:02;7.23;;;6.43;;
297;SDS011;133;49.626;9.680;2023-05-07T07:55:28;6.87;;;6.50;;
297;SDS011;133;49.626;9.680;2023-05-07T07:57:54;6.57;;;5.93;;
297;SDS011;133;49.626;9.680;2023-05-07T08:00:19;6.63;;;6.23;;
297;SDS011;133;49.626;9.680;2023-05-07T08:02:45;6.23;;;5.90;;
297;SDS011;133;49.626;9.680;2023-05-07T08:05:11;6.70;;;6.30;;
297;SDS011;133;49.626;9.680;2023-05-07T08:07:37;8.60;;;6.70;;
297;SDS011;133;49.626;9.680;2023-05-07T08:10:02;7.50;;;7.10;;
297;SDS011;133;49.626;9.680;2023-05-07T08:12:29;8.10;;;7.13;;
297;SDS011;133;49.626;9.680;2023-05-07T08:14:54;6.80;;;6.40;;
297;SDS011;133;49.626;9.680;2023-05-07T08:17:20;7.10;;;6.70;;
297;SDS011;133;49.626;9.680;2023-05-07T08:19:47;7.43;;;6.00;;
297;SDS011;133;49.626;9.680;2023-05-07T08:22:13;7.20;;;6.83;;
297;SDS011;133;49.626;9.680;2023-05-07T08:24:39;6.50;;;6.10;;
297;SDS011;133;49.626;9.680;2023-05-07T08:27:05;7.50;;;6.83;;
297;SDS011;133;49.626;9.680;2023-05-07T08:29:30;7.17;;;6.77;;
297;SDS011;133;49.626;9.680;2023-05-07T08:31:56;7.20;;;6.80;;
297;SDS011;133;49.626;9.680;2023-05-07T08:34:22;8.70;;;6.90;;
297;SDS011;133;49.626;9.680;2023-05-07T08:36:47;7.37;;;6.60;;
297;SDS011;133;49.626;9.680;2023-05-07T08:39:14;6.77;;;6.40;;
297;SDS011;133;49.626;9.680;2023-05-07T08:41:42;7.53;;;7.13;;
297;SDS011;133;49.626;9.680;2023-05-07T08:44:14;8.10;;;7.70;;
297;SDS011;133;49.626;9.680;2023-05-07T08:46:41;11.23;;;6.77;;
297;SDS011;133;49.626;9.680;2023-05-07T08:49:08;8.23;;;6.97;;
297;SDS011;133;49.626;9.680;2023-05-07T08:51:34;6.50;;;6.10;;
297;SDS011;133;49.626;9.680;2023-05-07T08:54:01;6.80;;;6.40;;
297;SDS011;133;49.626;9.680;2023-05-07T08:56:27;7.37;;;6.97;;
297;SDS011;133;49.626;9.680;2023-05-07T08:58:52;8.00;;;6.57;;
297;SDS011;133;49.626;9.680;2023-05-07T09:01:21;6.93;;;6.53;;
297;SDS011;133;49.626;9.680;2023-05-07T09:03:47;6.50;;;6.10;;
297;SDS011;133;49.626;9.680;2023-05-07T09:06:13;7.03;;;6.30;;
297;SDS011;133;49.626;9.680;2023-05-07T09:08:39;6.20;;;5.90;;
297;SDS011;133;49.626;9.680;2023-05-07T09:11:04;6.00;;;5.70;;
297;SDS011;133;49.626;9.680;2023-05-07T09:13:30;7.27;;;6.87;;
297;SDS011;133;49.626;9.680;2023-05-07T09:15:56;6.77;;;6.03;;
297;SDS011;133;49.626;9.680;2023-05-07T09:18:23;6.80;;;6.40;;
297;SDS011;133;49.626;9.680;2023-05-07T09:20:50;6.43;;;6.03;;
297;SDS011;133;49.626;9.680;2023-05-07T09:23:16;6.87;;;6.47;;
297;SDS011;133;49.626;9.680;2023-05-07T09:25:42;5.73;;;5.47;;
297;SDS011;133;49.626;9.680;2023-05-07T09:28:10;7.90;;;6.30;;
297;SDS011;133;49.626;9.680;2023-05-07T09:30:35;6.70;;;6.23;;
297;SDS011;133;49.626;9.680;2023-05-07T09:33:02;8.77;;;7.20;;
297;SDS011;133;49.626;9.680;2023-05-07T09:35:29;6.80;;;6.40;;
297;SDS011;133;49.626;9.680;2023-05-07T09:37:58;9.80;;;5.80;;
297;SDS011;133;49.626;9.680;2023-05-07T09:40:25;6.57;;;5.27;;
297;SDS011;133;49.626;9.680;2023-05-07T09:42:53;7.77;;;5.50;;
297;SDS011;133;49.626;9.680;2023-05-07T09:45:26;6.07;;;5.77;;
297;SDS011;133;49.626;9.680;2023-05-07T09:47:56;5.90;;;5.63;;
297;SDS011;133;49.626;9.680;2023-05-07T09:50:26;5.80;;;5.37;;
297;SDS011;133;49.626;9.680;2023-05-07T09:52:57;6.67;;;5.37;;
297;SDS011;133;49.626;9.680;2023-05-07T09:55:23;5.70;;;5.17;;
297;SDS011;133;49.626;9.680;2023-05-07T09:57:50;5.97;;;5.67;;
297;SDS011;133;49.626;9.680;2023-05-07T10:00:21;6.73;;;5.40;;
297;SDS011;133;49.626;9.680;2023-05-07T10:02:48;5.83;;;5.53;;
297;SDS011;133;49.626;9.680;2023-05-07T10:05:16;7.03;;;6.40;;
297;SDS011;133;49.626;9.680;2023-05-07T10:07:43;6.87;;;5.37;;
297;SDS011;133;49.626;9.680;2023-05-07T10:10:10;6.50;;;6.10;;
297;SDS011;133;49.626;9.680;2023-05-07T10:12:36;6.80;;;6.40;;
297;SDS011;133;49.626;9.680;2023-05-07T10:15:09;5.80;;;5.50;;
297;SDS011;133;49.626;9.680;2023-05-07T10:17:36;6.97;;;5.97;;
297;SDS011;133;49.626;9.680;2023-05-07T10:20:03;6.10;;;5.80;;
297;SDS011;133;49.626;9.680;2023-05-07T10:22:31;6.67;;;6.27;;
297;SDS011;133;49.626;9.680;2023-05-07T10:25:02;6.67;;;5.93;;
297;SDS011;133;49.626;9.680;2023-05-07T10:27:28;6.97;;;6.57;;
297;SDS011;133;49.626;9.680;2023-05-07T10:32:45;6.00;;;5.70;;
297;SDS011;133;49.626;9.680;2023-05-07T10:35:19;6.87;;;6.47;;
297;SDS011;133;49.626;9.680;2023-05-07T10:37:47;5.93;;;5.63;;
297;SDS011;133;49.626;9.680;2023-05-07T10:40:13;6.80;;;6.40;;
297;SDS011;133;49.626;9.680;2023-05-07T10:42:52;6.57;;;6.17;;
297;SDS011;133;49.626;9.680;2023-05-07T10:45:19;6.03;;;5.73;;
297;SDS011;133;49.626;9.680;2023-05-07T10:48:08;5.60;;;5.30;;
297;SDS011;133;49.626;9.680;2023-05-07T10:50:33;6.60;;;6.20;;
297;SDS011;133;49.626;9.680;2023-05-07T10:53:20;5.37;;;5.07;;
297;SDS011;133;49.626;9.680;2023-05-07T10:55:48;5.20;;;4.90;;
297;SDS011;133;49.626;9.680;2023-05-07T11:00:47;6.10;;;5.10;;
297;SDS011;133;49.626;9.680;2023-05-07T11:03:13;5.57;;;5.27;;
297;SDS011;133;49.626;9.680;2023-05-07T11:05:40;5.63;;;5.33;;
297;SDS011;133;49.626;9.680;2023-05-07T11:08:06;7.70;;;5.73;;
297;SDS011;133;49.626;9.680;2023-05-07T11:10:49;6.07;;;5.77;;
297;SDS011;133;49.626;9.680;2023-05-07T11:13:17;6.37;;;5.40;;
297;SDS011;133;49.626;9.680;2023-05-07T11:15:47;6.60;;;6.20;;
297;SDS011;133;49.626;9.680;2023-05-07T11:18:16;5.60;;;5.30;;
297;SDS011;133;49.626;9.680;2023-05-07T11:20:55;5.50;;;5.20;;
297;SDS011;133;49.626;9.680;2023-05-07T11:26:07;5.90;;;5.60;;
297;SDS011;133;49.626;9.680;2023-05-07T11:28:37;5.73;;;5.43;;
297;SDS011;133;49.626;9.680;2023-05-07T11:31:07;5.00;;;4.70;;
297;SDS011;133;49.626;9.680;2023-05-07T11:33:34;5.30;;;5.00;;
297;SDS011;133;49.626;9.680;2023-05-07T11:36:00;5.77;;;5.47;;
297;SDS011;133;49.626;9.680;2023-05-07T11:38:28;5.67;;;5.37;;
297;SDS011;133;49.626;9.680;2023-05-07T11:40:56;5.80;;;5.50;;
297;SDS011;133;49.626;9.680;2023-05-07T11:43:22;5.93;;;4.47;;
297;SDS011;133;49.626;9.680;2023-05-07T11:45:48;5.30;;;5.00;;
297;SDS011;133;49.626;9.680;2023-05-07T11:48:17;4.90;;;4.60;;
297;SDS011;133;49.626;9.680;2023-05-07T11:53:27;5.90;;;5.30;;
297;SDS011;133;49.626;9.680;2023-05-07T11:56:00;4.93;;;4.63;;
297;SDS011;133;49.626;9.680;2023-05-07T11:58:33;4.57;;;4.27;;
297;SDS011;133;49.626;9.680;2023-05-07T12:01:00;5.40;;;5.13;;
297;SDS011;133;49.626;9.680;2023-05-07T12:03:25;5.07;;;4.77;;
297;SDS011;133;49.626;9.680;2023-05-07T12:05:51;4.60;;;4.30;;
297;SDS011;133;49.626;9.680;2023-05-07T12:08:17;4.80;;;4.50;;
297;SDS011;133;49.626;9.680;2023-05-07T12:10:44;3.90;;;3.70;;
297;SDS011;133;49.626;9.680;2023-05-07T12:13:24;4.50;;;4.20;;
297;SDS011;133;49.626;9.680;2023-05-07T12:15:51;4.40;;;4.10;;
297;SDS011;133;49.626;9.680;2023-05-07T12:18:17;4.30;;;4.00;;
297;SDS011;133;49.626;9.680;2023-05-07T12:20:43;4.93;;;4.63;;
297;SDS011;133;49.626;9.680;2023-05-07T12:23:10;4.63;;;4.33;;
297;SDS011;133;49.626;9.680;2023-05-07T12:25:39;5.83;;;4.07;;
297;SDS011;133;49.626;9.680;2023-05-07T12:28:12;4.33;;;3.57;;
297;SDS011;133;49.626;9.680;2023-05-07T12:30:42;3.30;;;3.10;;
297;SDS011;133;49.626;9.680;2023-05-07T12:33:09;3.73;;;3.53;;
297;SDS011;133;49.626;9.680;2023-05-07T12:35:42;3.83;;;3.63;;
297;SDS011;133;49.626;9.680;2023-05-07T12:38:12;4.17;;;3.93;;
297;SDS011;133;49.626;9.680;2023-05-07T12:40:46;4.50;;;4.20;;
297;SDS011;133;49.626;9.680;2023-05-07T12:43:26;4.37;;;4.07;;
297;SDS011;133;49.626;9.680;2023-05-07T12:45:54;4.00;;;3.80;;
297;SDS011;133;49.626;9.680;2023-05-07T12:48:21;4.60;;;4.30;;
297;SDS011;133;49.626;9.680;2023-05-07T12:50:51;4.10;;;3.90;;
297;SDS011;133;49.626;9.680;2023-05-07T12:53:21;5.03;;;3.70;;
297;SDS011;133;49.626;9.680;2023-05-07T12:55:49;3.70;;;3.50;;
297;SDS011;133;49.626;9.680;2023-05-07T12:58:20;3.87;;;3.43;;
297;SDS011;133;49.626;9.680;2023-05-07T13:00:58;4.03;;;3.83;;
297;SDS011;133;49.626;9.680;2023-05-07T13:03:27;3.90;;;3.70;;
297;SDS011;133;49.626;9.680;2023-05-07T13:05:58;3.60;;;3.40;;
297;SDS011;133;49.626;9.680;2023-05-07T13:10:50;3.73;;;3.53;;
297;SDS011;133;49.626;9.680;2023-05-07T13:13:16;3.87;;;3.67;;
297;SDS011;133;49.626;9.680;2023-05-07T13:15:42;3.40;;;3.20;;
297;SDS011;133;49.626;9.680;2023-05-07T13:18:07;2.97;;;2.77;;
297;SDS011;133;49.626;9.680;2023-05-07T13:20:35;3.63;;;3.20;;
297;SDS011;133;49.626;9.680;2023-05-07T13:23:00;4.13;;;3.03;;
297;SDS011;133;49.626;9.680;2023-05-07T13:25:27;3.07;;;2.87;;
297;SDS011;133;49.626;9.680;2023-05-07T13:27:52;3.30;;;3.10;;
297;SDS011;133;49.626;9.680;2023-05-07T13:30:18;3.43;;;3.23;;
297;SDS011;133;49.626;9.680;2023-05-07T13:32:43;3.37;;;3.17;;
297;SDS011;133;49.626;9.680;2023-05-07T13:35:10;3.70;;;3.50;;
297;SDS011;133;49.626;9.680;2023-05-07T13:37:36;3.40;;;3.20;;
297;SDS011;133;49.626;9.680;2023-05-07T13:40:01;3.63;;;3.47;;
297;SDS011;133;49.626;9.680;2023-05-07T13:42:27;3.30;;;3.10;;
297;SDS011;133;49.626;9.680;2023-05-07T13:44:53;3.73;;;3.53;;
297;SDS011;133;49.626;9.680;2023-05-07T13:47:18;3.50;;;3.30;;
297;SDS011;133;49.626;9.680;2023-05-07T13:49:44;3.57;;;3.23;;
297;SDS011;133;49.626;9.680;2023-05-07T13:52:10;3.70;;;3.50;;
297;SDS011;133;49.626;9.680;2023-05-07T13:54:36;3.60;;;3.40;;
297;SDS011;133;49.626;9.680;2023-05-07T13:57:01;3.53;;;3.33;;
297;SDS011;133;49.626;9.680;2023-05-07T13:59:27;3.30;;;3.10;;
297;SDS011;133;49.626;9.680;2023-05-07T14:01:52;3.50;;;3.30;;
297;SDS011;133;49.626;9.680;2023-05-07T14:04:19;3.40;;;3.20;;
297;SDS011;133;49.626;9.680;2023-05-07T14:06:45;4.63;;;3.70;;
297;SDS011;133;49.626;9.680;2023-05-07T14:09:11;4.60;;;3.30;;
297;SDS011;133;49.626;9.680;2023-05-07T14:11:38;3.60;;;3.40;;
297;SDS011;133;49.626;9.680;2023-05-07T14:14:04;3.47;;;3.27;;
297;SDS011;133;49.626;9.680;2023-05-07T14:16:30;3.17;;;2.97;;
297;SDS011;133;49.626;9.680;2023-05-07T14:18:56;3.40;;;3.20;;
297;SDS011;133;49.626;9.680;2023-05-07T14:21:21;3.40;;;3.20;;
297;SDS011;133;49.626;9.680;2023-05-07T14:23:47;3.70;;;3.50;;
297;SDS011;133;49.626;9.680;2023-05-07T14:26:20;3.80;;;3.60;;
297;SDS011;133;49.626;9.680;2023-05-07T14:28:47;5.50;;;4.00;;
297;SDS011;133;49.626;9.680;2023-05-07T14:31:13;4.43;;;4.00;;
297;SDS011;133;49.626;9.680;2023-05-07T14:33:39;3.83;;;3.67;;
297;SDS011;133;49.626;9.680;2023-05-07T14:36:04;3.63;;;3.20;;
297;SDS011;133;49.626;9.680;2023-05-07T14:38:30;3.57;;;3.37;;
297;SDS011;133;49.626;9.680;2023-05-07T14:40:57;3.17;;;2.97;;
297;SDS011;133;49.626;9.680;2023-05-07T14:43:23;3.30;;;3.10;;
297;SDS011;133;49.626;9.680;2023-05-07T14:45:49;3.77;;;3.40;;
297;SDS011;133;49.626;9.680;2023-05-07T14:48:15;3.40;;;3.20;;
297;SDS011;133;49.626;9.680;2023-05-07T14:50:41;3.60;;;3.40;;
297;SDS011;133;49.626;9.680;2023-05-07T14:53:07;3.77;;;3.43;;
297;SDS011;133;49.626;9.680;2023-05-07T14:55:33;3.93;;;3.40;;
297;SDS011;133;49.626;9.680;2023-05-07T14:57:59;3.60;;;3.40;;
297;SDS011;133;49.626;9.680;2023-05-07T15:00:25;3.80;;;3.60;;
297;SDS011;133;49.626;9.680;2023-05-07T15:02:51;4.30;;;3.67;;
297;SDS011;133;49.626;9.680;2023-05-07T15:05:17;3.90;;;3.70;;
297;SDS011;133;49.626;9.680;2023-05-07T15:07:44;3.77;;;3.57;;
297;SDS011;133;49.626;9.680;2023-05-07T15:10:10;5.83;;;3.53;;
297;SDS011;133;49.626;9.680;2023-05-07T15:12:35;4.30;;;3.90;;
297;SDS011;133;49.626;9.680;2023-05-07T15:15:01;3.47;;;3.27;;
297;SDS011;133;49.626;9.680;2023-05-07T15:17:27;3.73;;;3.57;;
297;SDS011;133;49.626;9.680;2023-05-07T15:19:53;4.00;;;3.80;;
297;SDS011;133;49.626;9.680;2023-05-07T15:22:18;3.63;;;3.43;;
297;SDS011;133;49.626;9.680;2023-05-07T15:24:46;3.67;;;3.47;;
297;SDS011;133;49.626;9.680;2023-05-07T15:27:11;3.90;;;3.70;;
297;SDS011;133;49.626;9.680;2023-05-07T15:29:37;3.63;;;3.43;;
297;SDS011;133;49.626;9.680;2023-05-07T15:32:03;3.90;;;3.67;;
297;SDS011;133;49.626;9.680;2023-05-07T15:34:28;3.77;;;3.57;;
297;SDS011;133;49.626;9.680;2023-05-07T15:36:55;3.60;;;3.40;;
297;SDS011;133;49.626;9.680;2023-05-07T15:39:24;3.90;;;3.73;;
297;SDS011;133;49.626;9.680;2023-05-07T15:41:49;3.80;;;3.50;;
297;SDS011;133;49.626;9.680;2023-05-07T15:44:15;3.50;;;3.30;;
297;SDS011;133;49.626;9.680;2023-05-07T15:46:41;3.60;;;3.40;;
297;SDS011;133;49.626;9.680;2023-05-07T15:49:06;3.90;;;3.70;;
297;SDS011;133;49.626;9.680;2023-05-07T15:51:33;3.57;;;3.40;;
297;SDS011;133;49.626;9.680;2023-05-07T15:54:00;4.93;;;3.97;;